Time;durP1;ratioP1;P1;durP2;ratioP2;P2;SDS_P1;SDS_P2;PMS_P1;PMS_P2;Temp;Humidity;BMP_temperature;BMP_pressure;BME280_temperature;BME280_humidity;BME280_pressure;Samples;Min_cycle;Max_cycle;Signal;HPM_P1;HPM_P2
2021/12/31 00:01:45;;;;;;;3.50;2.03;;;18.60;62.90;;;;;;4985222;28;20065;-50
2021/12/31 00:04:11;;;;;;;6.30;2.17;;;18.60;62.90;;;;;;4984681;28;20030;-53
2021/12/31 00:06:36;;;;;;;3.90;1.70;;;18.60;62.90;;;;;;4984539;28;20481;-58
2021/12/31 00:09:03;;;;;;;5.72;1.92;;;18.60;62.90;;;;;;4984059;28;20037;-56
2021/12/31 00:11:29;;;;;;;4.70;2.17;;;18.60;62.90;;;;;;4967760;28;20046;-58
2021/12/31 00:13:54;;;;;;;4.78;2.00;;;18.60;62.90;;;;;;4987016;28;20392;-56
2021/12/31 00:16:20;;;;;;;3.38;1.85;;;18.60;62.90;;;;;;4983840;28;20109;-53
2021/12/31 00:18:45;;;;;;;4.65;2.25;;;18.60;62.80;;;;;;4985095;28;20267;-53
2021/12/31 00:21:11;;;;;;;4.10;1.52;;;18.60;62.90;;;;;;4983620;28;20621;-58
2021/12/31 00:23:36;;;;;;;3.88;1.90;;;18.60;62.80;;;;;;4984415;28;20038;-49
2021/12/31 00:26:02;;;;;;;3.80;2.13;;;18.60;62.90;;;;;;4984182;28;20035;-50
2021/12/31 00:28:27;;;;;;;4.93;1.70;;;18.60;62.90;;;;;;4984196;28;20439;-54
2021/12/31 00:30:54;;;;;;;5.05;1.85;;;18.60;62.80;;;;;;5005109;22;20164;-57
2021/12/31 00:33:21;;;;;;;3.42;1.83;;;18.60;62.80;;;;;;5001843;28;20405;-60
2021/12/31 00:35:46;;;;;;;5.80;2.00;;;18.60;62.80;;;;;;5004070;28;20041;-58
2021/12/31 00:38:12;;;;;;;2.90;2.00;;;18.60;62.80;;;;;;4983704;28;20026;-58
2021/12/31 00:40:37;;;;;;;5.80;2.67;;;18.60;62.90;;;;;;4983598;28;20038;-57
2021/12/31 00:43:03;;;;;;;3.95;1.80;;;18.60;62.90;;;;;;4986654;28;20146;-58
2021/12/31 00:45:30;;;;;;;4.30;1.85;;;18.60;63.00;;;;;;4971875;28;20030;-59
2021/12/31 00:47:56;;;;;;;4.25;1.90;;;18.60;63.00;;;;;;4984769;28;20064;-56
2021/12/31 00:50:21;;;;;;;3.47;1.60;;;18.50;63.00;;;;;;4983817;28;20054;-57
2021/12/31 00:52:47;;;;;;;3.13;1.98;;;18.60;63.10;;;;;;4980446;28;20056;-59
2021/12/31 00:55:13;;;;;;;3.88;1.98;;;18.60;63.10;;;;;;4982352;28;20026;-59
2021/12/31 00:57:39;;;;;;;4.03;1.60;;;18.60;63.10;;;;;;4981776;28;20041;-57
2021/12/31 01:00:05;;;;;;;3.95;2.10;;;18.60;63.00;;;;;;4986014;28;20096;-58
2021/12/31 01:02:31;;;;;;;2.53;1.67;;;18.60;63.00;;;;;;4983112;28;20041;-59
2021/12/31 01:04:56;;;;;;;6.32;2.30;;;18.60;63.20;;;;;;4984408;28;20493;-59
2021/12/31 01:07:22;;;;;;;2.72;1.70;;;18.60;63.20;;;;;;4978232;28;20041;-57
2021/12/31 01:09:47;;;;;;;4.40;1.77;;;18.60;63.20;;;;;;4989217;28;21055;-60
2021/12/31 01:12:14;;;;;;;5.75;2.20;;;18.60;63.20;;;;;;4983804;28;20023;-57
2021/12/31 01:14:52;;;;;;;6.18;2.45;;;18.60;63.20;;;;;;4987494;28;20022;-58
2021/12/31 01:17:22;;;;;;;4.40;2.10;;;18.60;63.30;;;;;;4979334;28;20041;-58
2021/12/31 01:19:49;;;;;;;3.50;1.80;;;18.60;63.10;;;;;;4982624;28;20395;-59
2021/12/31 01:22:16;;;;;;;5.80;2.03;;;18.60;63.30;;;;;;4983403;28;20041;-58
2021/12/31 01:24:41;;;;;;;3.75;2.00;;;18.60;63.20;;;;;;4981991;28;20101;-59
2021/12/31 01:27:07;;;;;;;2.63;1.60;;;18.60;63.30;;;;;;4982884;28;20165;-59
2021/12/31 01:29:32;;;;;;;6.20;2.15;;;18.60;63.20;;;;;;4982250;28;20080;-59
2021/12/31 01:31:58;;;;;;;3.60;2.30;;;18.60;63.30;;;;;;4983062;28;20034;-54
2021/12/31 01:34:24;;;;;;;5.30;2.45;;;18.60;63.30;;;;;;4982594;28;20077;-57
2021/12/31 01:36:50;;;;;;;3.88;2.10;;;18.60;63.30;;;;;;4965792;28;20037;-59
2021/12/31 01:39:16;;;;;;;5.15;2.15;;;18.70;63.30;;;;;;4985073;28;20029;-59
2021/12/31 01:41:41;;;;;;;3.40;1.92;;;18.70;63.30;;;;;;4982951;28;20041;-57
2021/12/31 01:44:07;;;;;;;4.30;1.90;;;18.70;63.30;;;;;;4982212;28;20034;-59
2021/12/31 01:46:35;;;;;;;3.00;1.80;;;18.70;63.20;;;;;;4981131;28;20034;-58
2021/12/31 01:49:03;;;;;;;4.97;2.60;;;18.70;63.20;;;;;;4981402;28;20034;-57
2021/12/31 01:51:29;;;;;;;3.95;1.80;;;18.60;63.20;;;;;;4982814;28;20042;-58
2021/12/31 01:53:54;;;;;;;4.07;1.95;;;18.70;63.20;;;;;;4982342;28;20039;-59
2021/12/31 01:56:20;;;;;;;2.65;1.67;;;18.70;63.30;;;;;;4965028;28;20030;-59
2021/12/31 01:58:48;;;;;;;3.00;1.58;;;18.70;63.20;;;;;;4964859;28;20030;-57
2021/12/31 02:01:13;;;;;;;3.35;2.05;;;18.70;63.40;;;;;;4982776;28;20038;-59
2021/12/31 02:03:39;;;;;;;4.43;2.08;;;18.70;63.20;;;;;;4982357;28;20202;-59
2021/12/31 02:06:04;;;;;;;3.55;2.13;;;18.70;63.20;;;;;;4982355;28;20588;-60
2021/12/31 02:08:30;;;;;;;2.85;1.95;;;18.70;63.20;;;;;;4981717;28;20035;-59
2021/12/31 02:10:56;;;;;;;3.83;1.85;;;18.60;63.30;;;;;;4988622;28;20027;-59
2021/12/31 02:13:22;;;;;;;3.90;1.85;;;18.70;63.40;;;;;;4982699;28;20037;-59
2021/12/31 02:15:47;;;;;;;4.13;1.73;;;18.70;63.40;;;;;;4966102;28;20494;-59
2021/12/31 02:18:13;;;;;;;3.75;2.17;;;18.70;63.40;;;;;;4964982;28;20122;-59
2021/12/31 02:20:47;;;;;;;2.95;1.60;;;18.60;63.40;;;;;;4982326;28;20120;-57
2021/12/31 02:23:23;;;;;;;4.10;1.92;;;18.60;63.30;;;;;;4982826;28;20412;-57
2021/12/31 02:25:49;;;;;;;3.85;1.92;;;18.60;63.50;;;;;;4978580;28;20038;-58
2021/12/31 02:28:15;;;;;;;3.83;1.75;;;18.60;63.60;;;;;;4983480;28;20445;-56
2021/12/31 02:30:41;;;;;;;5.97;1.95;;;18.60;63.60;;;;;;4982135;28;20493;-57
2021/12/31 02:33:06;;;;;;;4.25;1.92;;;18.60;63.60;;;;;;4982125;28;20037;-57
2021/12/31 02:35:32;;;;;;;5.70;2.10;;;18.60;63.60;;;;;;4985408;28;20123;-59
2021/12/31 02:37:58;;;;;;;3.35;2.10;;;18.60;63.70;;;;;;4980947;28;20041;-59
2021/12/31 02:40:24;;;;;;;3.15;1.70;;;18.60;63.60;;;;;;4987240;28;20045;-59
2021/12/31 02:42:50;;;;;;;3.13;1.73;;;18.60;63.60;;;;;;4981629;28;20117;-59
2021/12/31 02:45:15;;;;;;;2.80;1.70;;;18.60;63.70;;;;;;4981616;28;20073;-58
2021/12/31 02:47:45;;;;;;;3.20;1.77;;;18.60;63.80;;;;;;4982075;28;20035;-58
2021/12/31 02:50:13;;;;;;;7.00;1.65;;;18.60;63.70;;;;;;4980418;28;20512;-58
2021/12/31 02:52:39;;;;;;;3.05;1.80;;;18.60;63.60;;;;;;4981192;28;20050;-59
2021/12/31 02:55:05;;;;;;;4.25;1.77;;;18.60;63.80;;;;;;4982765;28;20173;-60
2021/12/31 02:57:30;;;;;;;2.50;1.60;;;18.60;63.70;;;;;;4981908;28;20496;-58
2021/12/31 02:59:56;;;;;;;3.50;1.60;;;18.60;63.70;;;;;;4981182;28;20038;-59
2021/12/31 03:02:24;;;;;;;3.67;1.70;;;18.60;63.60;;;;;;4966539;28;20027;-58
2021/12/31 03:04:51;;;;;;;2.83;1.60;;;18.60;63.60;;;;;;4964918;28;20026;-57
2021/12/31 03:07:16;;;;;;;3.08;1.70;;;18.50;63.60;;;;;;4981956;28;20065;-58
2021/12/31 03:09:46;;;;;;;4.80;1.85;;;18.60;63.80;;;;;;4978835;28;20112;-58
2021/12/31 03:12:13;;;;;;;1.75;1.27;;;18.60;63.60;;;;;;4982384;28;20100;-57
2021/12/31 03:14:39;;;;;;;2.30;1.52;;;18.50;63.50;;;;;;4982115;28;20052;-58
2021/12/31 03:17:05;;;;;;;1.90;1.40;;;18.60;63.60;;;;;;4972937;28;20034;-59
2021/12/31 03:19:30;;;;;;;4.47;1.90;;;18.60;63.60;;;;;;4985018;28;20019;-59
2021/12/31 03:21:56;;;;;;;3.55;1.50;;;18.60;63.60;;;;;;4984607;28;20080;-57
2021/12/31 03:24:21;;;;;;;4.70;1.95;;;18.60;63.50;;;;;;4985456;28;20026;-59
2021/12/31 03:26:47;;;;;;;2.08;1.45;;;18.60;63.60;;;;;;4987977;28;20033;-57
2021/12/31 03:29:12;;;;;;;2.88;1.73;;;18.60;63.60;;;;;;4983934;28;20034;-59
2021/12/31 03:31:38;;;;;;;2.95;1.50;;;18.60;63.60;;;;;;4985960;28;20051;-58
2021/12/31 03:34:03;;;;;;;4.00;1.80;;;18.60;63.50;;;;;;4984582;28;20026;-56
2021/12/31 03:36:29;;;;;;;5.72;2.38;;;18.60;63.60;;;;;;4984247;28;20074;-59
2021/12/31 03:38:54;;;;;;;3.15;1.40;;;18.60;63.50;;;;;;4985337;28;20034;-58
2021/12/31 03:41:20;;;;;;;3.70;1.60;;;18.60;63.40;;;;;;4990268;28;20022;-58
2021/12/31 03:43:46;;;;;;;4.82;2.22;;;18.50;63.50;;;;;;4984700;28;20070;-59
2021/12/31 03:46:11;;;;;;;4.00;1.75;;;18.60;63.50;;;;;;4985256;28;20102;-58
2021/12/31 03:48:37;;;;;;;2.95;1.67;;;18.50;63.50;;;;;;4985406;28;20038;-58
2021/12/31 03:51:02;;;;;;;2.88;1.48;;;18.50;63.40;;;;;;4983139;28;20037;-58
2021/12/31 03:53:28;;;;;;;3.50;1.50;;;18.60;63.40;;;;;;4985120;28;20045;-59
2021/12/31 03:55:53;;;;;;;3.10;1.77;;;18.60;63.40;;;;;;4984625;28;20548;-57
2021/12/31 03:58:19;;;;;;;2.83;1.40;;;18.60;63.40;;;;;;4987327;28;20038;-58
2021/12/31 04:00:46;;;;;;;3.13;1.70;;;18.60;63.30;;;;;;4984181;28;20407;-59
2021/12/31 04:03:11;;;;;;;2.35;1.73;;;18.60;63.40;;;;;;4985147;28;20129;-56
2021/12/31 04:05:38;;;;;;;5.25;1.70;;;18.60;63.40;;;;;;4982953;28;20520;-57
2021/12/31 04:08:04;;;;;;;2.42;1.35;;;18.60;63.10;;;;;;4989384;28;20030;-59
2021/12/31 04:10:30;;;;;;;2.85;1.27;;;18.60;63.10;;;;;;4984449;28;20038;-59
2021/12/31 04:12:55;;;;;;;2.30;1.33;;;18.60;63.40;;;;;;4983376;28;20031;-58
2021/12/31 04:15:21;;;;;;;4.22;1.33;;;18.60;63.30;;;;;;4983815;28;20034;-59
2021/12/31 04:17:47;;;;;;;3.80;1.77;;;18.60;63.40;;;;;;4985179;28;20034;-58
2021/12/31 04:20:19;;;;;;;3.15;1.98;;;18.60;63.30;;;;;;4967799;28;20038;-59
2021/12/31 04:22:52;;;;;;;2.85;1.20;;;18.60;63.30;;;;;;4985749;28;20030;-58
2021/12/31 04:25:18;;;;;;;2.10;1.02;;;18.60;63.40;;;;;;4985123;28;20513;-57
2021/12/31 04:27:43;;;;;;;2.78;1.48;;;18.60;63.40;;;;;;4984004;28;20061;-60
2021/12/31 04:30:09;;;;;;;2.33;1.27;;;18.60;63.20;;;;;;4983611;28;20103;-58
2021/12/31 04:32:35;;;;;;;4.05;1.42;;;18.60;63.20;;;;;;4987037;28;20460;-57
2021/12/31 04:35:00;;;;;;;1.98;1.30;;;18.70;63.20;;;;;;4983233;28;20026;-57
2021/12/31 04:37:26;;;;;;;2.65;1.77;;;18.60;63.10;;;;;;4984011;28;20034;-57
2021/12/31 04:39:51;;;;;;;1.52;1.08;;;18.60;63.20;;;;;;4984143;28;20027;-59
2021/12/31 04:42:17;;;;;;;4.55;1.50;;;18.60;63.20;;;;;;4982827;28;20132;-58
2021/12/31 04:44:42;;;;;;;1.65;1.42;;;18.60;63.20;;;;;;4982413;28;20034;-59
2021/12/31 04:47:08;;;;;;;3.17;1.23;;;18.60;63.20;;;;;;4984115;28;20200;-58
2021/12/31 04:49:33;;;;;;;2.13;1.20;;;18.60;63.20;;;;;;4983738;28;20035;-58
2021/12/31 04:51:59;;;;;;;2.70;1.70;;;18.60;63.10;;;;;;4984026;28;20085;-58
2021/12/31 04:54:25;;;;;;;1.45;0.90;;;18.70;63.20;;;;;;4984167;28;20035;-56
2021/12/31 04:56:53;;;;;;;2.22;1.20;;;18.60;62.90;;;;;;4984102;28;20023;-57
2021/12/31 04:59:19;;;;;;;4.72;1.58;;;18.60;63.00;;;;;;4985288;28;20489;-58
2021/12/31 05:01:45;;;;;;;2.25;1.42;;;18.60;63.00;;;;;;4983948;28;20112;-58
2021/12/31 05:04:10;;;;;;;2.13;1.30;;;18.60;63.00;;;;;;4983817;28;20042;-58
2021/12/31 05:06:37;;;;;;;2.00;1.20;;;18.60;63.00;;;;;;4983665;28;20030;-58
2021/12/31 05:09:03;;;;;;;1.92;1.20;;;18.60;63.00;;;;;;4985174;28;20029;-57
2021/12/31 05:11:28;;;;;;;2.00;1.08;;;18.60;63.00;;;;;;4982558;28;20038;-58
2021/12/31 05:13:54;;;;;;;1.55;1.45;;;18.70;63.00;;;;;;4983664;28;20081;-57
2021/12/31 05:16:19;;;;;;;1.65;1.13;;;18.70;62.90;;;;;;4983960;28;20529;-59
2021/12/31 05:18:45;;;;;;;1.77;1.05;;;18.70;63.00;;;;;;4991186;28;20042;-59
2021/12/31 05:21:10;;;;;;;3.90;1.95;;;18.60;62.80;;;;;;4983748;28;20038;-57
2021/12/31 05:23:36;;;;;;;3.00;1.10;;;18.70;62.90;;;;;;4989122;28;20505;-59
2021/12/31 05:26:01;;;;;;;2.15;1.05;;;18.70;62.90;;;;;;4983428;28;20030;-59
2021/12/31 05:28:27;;;;;;;0.98;0.80;;;18.60;62.70;;;;;;4982654;28;20035;-58
2021/12/31 05:30:52;;;;;;;2.75;0.90;;;18.60;62.80;;;;;;4983209;28;20405;-59
2021/12/31 05:33:18;;;;;;;1.85;1.05;;;18.70;62.90;;;;;;4982556;28;20045;-58
2021/12/31 05:35:43;;;;;;;1.92;1.05;;;18.70;63.00;;;;;;4983248;28;20038;-58
2021/12/31 05:38:09;;;;;;;1.67;1.20;;;18.60;62.80;;;;;;4983405;28;20089;-57
2021/12/31 05:40:36;;;;;;;3.22;2.03;;;18.70;62.90;;;;;;4982529;28;20425;-58
2021/12/31 05:43:01;;;;;;;1.98;1.05;;;18.60;62.80;;;;;;4982564;28;20029;-59
2021/12/31 05:45:27;;;;;;;1.48;1.10;;;18.60;62.80;;;;;;4983242;28;20035;-58
2021/12/31 05:47:53;;;;;;;2.05;0.90;;;18.70;62.80;;;;;;4981028;28;20030;-57
2021/12/31 05:50:19;;;;;;;2.88;1.42;;;18.70;62.90;;;;;;4982822;28;20061;-59
2021/12/31 05:52:47;;;;;;;2.47;1.02;;;18.70;62.80;;;;;;4982878;28;20026;-58
2021/12/31 05:55:13;;;;;;;2.05;1.10;;;18.60;62.80;;;;;;4983178;28;20022;-59
2021/12/31 05:57:38;;;;;;;1.60;0.75;;;18.70;62.90;;;;;;4981102;28;20089;-59
2021/12/31 06:00:05;;;;;;;1.52;0.70;;;18.60;62.80;;;;;;4981868;28;20026;-57
2021/12/31 06:02:30;;;;;;;2.80;1.27;;;18.60;62.80;;;;;;4982217;28;20030;-58
2021/12/31 06:04:56;;;;;;;3.70;1.27;;;18.70;62.80;;;;;;4982979;28;20041;-59
2021/12/31 06:07:21;;;;;;;3.65;1.65;;;18.60;62.80;;;;;;4981261;28;20358;-56
2021/12/31 06:09:47;;;;;;;2.05;1.08;;;18.70;62.80;;;;;;4982662;28;20061;-56
2021/12/31 06:12:12;;;;;;;1.73;0.73;;;18.60;62.80;;;;;;4981183;28;20029;-59
2021/12/31 06:14:38;;;;;;;1.77;1.00;;;18.70;62.80;;;;;;4968147;28;20441;-58
2021/12/31 06:17:08;;;;;;;1.98;0.90;;;18.60;62.80;;;;;;4982976;28;20101;-58
2021/12/31 06:19:37;;;;;;;0.95;0.80;;;18.60;62.80;;;;;;4979037;28;20038;-58
2021/12/31 06:22:03;;;;;;;1.30;0.98;;;18.60;62.70;;;;;;4981850;28;20031;-54
2021/12/31 06:24:29;;;;;;;2.28;0.90;;;18.70;62.80;;;;;;4960233;28;20287;-59
2021/12/31 06:26:55;;;;;;;1.75;0.90;;;18.70;62.80;;;;;;4992731;28;20026;-59
2021/12/31 06:29:20;;;;;;;1.45;0.90;;;18.70;62.80;;;;;;4982600;28;20034;-58
2021/12/31 06:31:46;;;;;;;2.28;1.10;;;18.70;62.80;;;;;;4982298;28;20038;-58
2021/12/31 06:34:11;;;;;;;2.67;0.98;;;18.70;62.80;;;;;;4982342;28;20058;-58
2021/12/31 06:36:37;;;;;;;1.83;0.85;;;18.70;62.80;;;;;;4982542;28;20073;-58
2021/12/31 06:39:03;;;;;;;2.55;1.75;;;18.70;62.70;;;;;;4980565;28;20470;-58
2021/12/31 06:41:29;;;;;;;1.65;1.17;;;18.70;62.80;;;;;;4982733;28;20084;-58
2021/12/31 06:43:55;;;;;;;1.17;0.82;;;18.70;62.80;;;;;;4982417;28;20061;-57
2021/12/31 06:46:20;;;;;;;1.63;0.93;;;18.70;62.80;;;;;;4979385;28;20037;-55
2021/12/31 06:48:46;;;;;;;1.35;0.70;;;18.70;62.60;;;;;;4980643;28;20054;-58
2021/12/31 06:51:12;;;;;;;0.63;0.52;;;18.70;62.70;;;;;;4984636;28;20030;-59
2021/12/31 06:53:38;;;;;;;1.75;0.80;;;18.70;62.90;;;;;;4986688;28;20034;-58
2021/12/31 06:56:04;;;;;;;1.80;1.10;;;18.70;62.90;;;;;;4988136;28;20042;-59
2021/12/31 06:58:29;;;;;;;2.90;1.15;;;18.80;62.80;;;;;;4985607;28;20030;-58
2021/12/31 07:00:55;;;;;;;1.95;0.93;;;18.80;62.80;;;;;;4983242;28;20039;-58
2021/12/31 07:03:20;;;;;;;1.80;0.77;;;18.80;62.80;;;;;;4986160;28;20030;-58
2021/12/31 07:05:46;;;;;;;3.00;0.70;;;18.70;63.40;;;;;;4985254;28;20441;-58
2021/12/31 07:08:13;;;;;;;1.50;0.90;;;18.70;62.80;;;;;;4985674;28;20057;-58
2021/12/31 07:10:38;;;;;;;0.85;0.63;;;18.70;62.80;;;;;;4986951;28;20058;-59
2021/12/31 07:13:05;;;;;;;3.53;0.93;;;18.70;62.80;;;;;;4984395;28;20026;-59
2021/12/31 07:15:31;;;;;;;1.50;0.80;;;18.70;62.80;;;;;;4993396;28;20085;-58
2021/12/31 07:17:56;;;;;;;2.08;1.13;;;18.70;62.80;;;;;;4985683;28;20722;-59
2021/12/31 07:20:22;;;;;;;2.97;1.10;;;18.70;62.80;;;;;;4985354;28;20065;-58
2021/12/31 07:22:47;;;;;;;2.30;1.30;;;18.70;62.80;;;;;;4985714;28;20398;-59
2021/12/31 07:25:13;;;;;;;2.28;1.00;;;18.70;62.70;;;;;;4991535;28;20052;-57
2021/12/31 07:27:38;;;;;;;3.17;1.05;;;18.80;62.80;;;;;;4985995;28;20410;-58
2021/12/31 07:30:05;;;;;;;5.07;1.38;;;18.70;62.80;;;;;;4984483;28;20033;-57
2021/12/31 07:32:35;;;;;;;3.10;0.82;;;18.70;62.80;;;;;;4983713;28;20494;-56
2021/12/31 07:35:01;;;;;;;4.95;1.20;;;18.70;62.80;;;;;;4985581;28;20041;-57
2021/12/31 07:37:26;;;;;;;4.82;1.42;;;18.70;62.90;;;;;;4984833;28;20026;-59
2021/12/31 07:39:59;;;;;;;6.55;1.30;;;18.70;62.90;;;;;;4986868;28;20547;-58
2021/12/31 07:42:24;;;;;;;5.32;1.20;;;18.70;63.00;;;;;;4984770;28;20038;-57
2021/12/31 07:44:50;;;;;;;3.65;1.10;;;18.70;63.00;;;;;;4980758;28;20045;-57
2021/12/31 07:47:15;;;;;;;5.18;1.30;;;18.70;63.10;;;;;;4984432;28;20030;-57
2021/12/31 07:49:41;;;;;;;4.97;2.00;;;18.70;63.10;;;;;;4984542;28;20490;-59
2021/12/31 07:52:06;;;;;;;6.45;1.23;;;18.70;63.10;;;;;;4989636;28;20109;-59
2021/12/31 07:54:32;;;;;;;4.60;1.27;;;18.70;63.20;;;;;;4984282;28;20126;-59
2021/12/31 07:56:58;;;;;;;6.82;1.75;;;18.70;63.80;;;;;;4983180;28;20049;-58
2021/12/31 07:59:23;;;;;;;29.45;2.03;;;18.70;63.20;;;;;;4983774;28;20038;-59
2021/12/31 08:01:49;;;;;;;9.88;1.27;;;18.70;63.30;;;;;;4984693;28;20034;-57
2021/12/31 08:04:14;;;;;;;3.00;1.05;;;18.70;63.20;;;;;;4984191;28;20030;-55
2021/12/31 08:06:40;;;;;;;8.05;1.17;;;18.70;63.30;;;;;;4984378;28;20030;-57
2021/12/31 08:09:05;;;;;;;7.43;1.20;;;18.70;63.20;;;;;;4983919;28;20675;-58
2021/12/31 08:11:31;;;;;;;3.67;1.10;;;18.70;63.30;;;;;;4986805;28;20160;-59
2021/12/31 08:13:56;;;;;;;2.45;1.08;;;18.70;63.40;;;;;;4984329;28;20330;-54
2021/12/31 08:16:22;;;;;;;4.40;1.00;;;18.70;63.40;;;;;;4984447;28;20033;-60
2021/12/31 08:18:47;;;;;;;4.60;1.50;;;18.70;63.40;;;;;;4984361;28;20054;-60
2021/12/31 08:21:13;;;;;;;7.20;1.20;;;18.70;63.40;;;;;;4984490;28;20052;-56
2021/12/31 08:23:38;;;;;;;5.00;2.05;;;18.70;63.40;;;;;;4984917;28;20501;-58
2021/12/31 08:26:05;;;;;;;5.65;1.23;;;18.70;63.30;;;;;;4987164;28;20031;-58
2021/12/31 08:28:30;;;;;;;2.08;0.98;;;18.70;63.40;;;;;;4984368;28;20045;-58
2021/12/31 08:30:58;;;;;;;4.50;1.00;;;18.70;63.20;;;;;;4987672;28;20029;-58
2021/12/31 08:33:24;;;;;;;3.90;0.93;;;18.70;63.20;;;;;;4983558;28;20042;-59
2021/12/31 08:35:50;;;;;;;2.95;1.10;;;18.70;63.10;;;;;;4984988;28;20034;-58
2021/12/31 08:38:15;;;;;;;5.18;1.10;;;18.70;63.10;;;;;;4984850;28;20406;-57
2021/12/31 08:40:41;;;;;;;1.58;0.93;;;18.70;63.70;;;;;;4983796;28;20057;-58
2021/12/31 08:43:07;;;;;;;1.40;0.63;;;18.70;63.10;;;;;;4983208;28;20031;-57
2021/12/31 08:45:32;;;;;;;3.97;0.80;;;18.70;63.00;;;;;;4984501;28;20662;-58
2021/12/31 08:47:58;;;;;;;3.72;1.10;;;18.70;63.10;;;;;;4983718;28;20034;-58
2021/12/31 08:50:23;;;;;;;6.35;0.70;;;18.70;63.10;;;;;;4983890;28;20401;-57
2021/12/31 08:52:49;;;;;;;4.47;1.02;;;18.70;63.00;;;;;;4985193;28;20061;-58
2021/12/31 08:55:14;;;;;;;1.63;0.70;;;18.70;63.00;;;;;;4983962;28;20030;-58
2021/12/31 08:57:40;;;;;;;2.35;1.00;;;18.70;63.10;;;;;;4983768;28;20030;-57
2021/12/31 09:00:06;;;;;;;4.07;0.90;;;18.70;63.10;;;;;;4983467;28;20441;-57
2021/12/31 09:02:32;;;;;;;3.28;0.93;;;18.70;63.00;;;;;;4988021;28;20038;-56
2021/12/31 09:04:58;;;;;;;1.73;0.77;;;18.70;63.10;;;;;;4980227;28;20045;-55
2021/12/31 09:07:23;;;;;;;4.90;1.17;;;18.70;63.50;;;;;;4972795;28;20034;-58
2021/12/31 09:09:49;;;;;;;2.50;0.93;;;18.70;64.50;;;;;;4986328;28;20073;-59
2021/12/31 09:12:14;;;;;;;4.03;1.00;;;18.70;65.30;;;;;;4986541;28;20030;-57
2021/12/31 09:14:40;;;;;;;4.38;1.00;;;18.70;65.60;;;;;;4983480;28;20458;-58
2021/12/31 09:17:05;;;;;;;2.45;0.90;;;18.60;65.60;;;;;;4983770;28;20046;-58
2021/12/31 09:19:31;;;;;;;4.43;1.33;;;18.70;65.80;;;;;;4982524;28;20114;-57
2021/12/31 09:21:57;;;;;;;2.47;1.63;;;18.70;66.80;;;;;;4983938;28;20038;-57
2021/12/31 09:24:23;;;;;;;3.30;1.40;;;18.70;67.00;;;;;;4983905;28;20037;-57
2021/12/31 09:26:48;;;;;;;4.78;1.60;;;18.70;68.50;;;;;;4986221;28;20260;-57
2021/12/31 09:29:18;;;;;;;3.28;1.38;;;18.70;68.00;;;;;;4982797;28;20872;-57
2021/12/31 09:31:43;;;;;;;3.30;1.50;;;18.60;67.50;;;;;;4983909;28;20042;-58
2021/12/31 09:34:09;;;;;;;3.03;1.52;;;18.60;67.80;;;;;;4981421;28;20044;-57
2021/12/31 09:36:34;;;;;;;3.08;1.58;;;18.70;67.00;;;;;;4977981;28;20034;-60
2021/12/31 09:39:00;;;;;;;2.95;1.33;;;18.70;67.00;;;;;;4982816;28;20490;-59
2021/12/31 09:41:25;;;;;;;2.78;1.02;;;18.60;67.70;;;;;;4983090;28;20066;-58
2021/12/31 09:43:51;;;;;;;1.00;0.75;;;18.70;67.70;;;;;;4991697;28;20241;-59
2021/12/31 09:46:18;;;;;;;3.72;1.30;;;18.70;66.40;;;;;;4983483;28;20749;-58
2021/12/31 09:48:43;;;;;;;3.47;0.90;;;18.70;67.10;;;;;;4982600;28;20045;-57
2021/12/31 09:51:09;;;;;;;3.55;0.95;;;18.70;66.70;;;;;;4983293;28;20026;-59
2021/12/31 09:53:35;;;;;;;1.50;1.10;;;18.70;66.80;;;;;;4983315;28;20031;-58
2021/12/31 09:56:00;;;;;;;2.25;1.38;;;18.60;66.70;;;;;;4982123;28;20058;-57
2021/12/31 09:58:26;;;;;;;1.95;0.90;;;18.70;66.60;;;;;;4986053;28;20039;-57
2021/12/31 10:00:53;;;;;;;1.15;1.05;;;18.70;66.60;;;;;;4981970;28;20041;-58
2021/12/31 10:03:26;;;;;;;1.70;0.98;;;18.70;66.70;;;;;;4982878;28;20027;-58
2021/12/31 10:05:54;;;;;;;2.17;1.10;;;18.70;66.70;;;;;;4983133;28;20030;-58
2021/12/31 10:08:20;;;;;;;2.97;1.05;;;18.60;67.10;;;;;;4981483;28;20110;-57
2021/12/31 10:11:06;;;;;;;5.00;1.20;;;18.60;66.90;;;;;;4981592;28;20066;-57
2021/12/31 10:13:32;;;;;;;;;;;18.70;67.20;;;;;;4982937;28;20045;-57
2021/12/31 10:15:59;;;;;;;2.03;1.10;;;18.60;67.30;;;;;;4983147;28;20120;-57
2021/12/31 10:18:35;;;;;;;2.33;1.10;;;18.60;66.80;;;;;;4980960;28;20117;-55
2021/12/31 10:21:00;;;;;;;1.05;0.75;;;18.60;67.30;;;;;;4980698;28;20606;-58
2021/12/31 10:23:26;;;;;;;3.80;1.08;;;18.60;67.60;;;;;;4989677;28;20046;-58
2021/12/31 10:26:08;;;;;;;3.38;1.00;;;18.60;67.70;;;;;;4982138;28;20030;-58
2021/12/31 10:28:33;;;;;;;2.10;1.13;;;18.60;67.80;;;;;;4980305;28;20466;-57
2021/12/31 10:31:14;;;;;;;4.72;1.13;;;18.60;68.10;;;;;;4981973;28;20146;-59
2021/12/31 10:33:44;;;;;;;2.97;1.00;;;18.60;68.10;;;;;;4982775;28;20042;-59
2021/12/31 10:36:29;;;;;;;5.30;1.00;;;18.60;68.20;;;;;;4982576;28;20102;-59
2021/12/31 10:38:55;;;;;;;2.80;1.13;;;18.70;68.30;;;;;;4963734;28;20117;-58
2021/12/31 10:41:23;;;;;;;2.05;0.90;;;18.70;68.10;;;;;;4982359;28;20046;-58
2021/12/31 10:43:56;;;;;;;2.72;0.98;;;18.60;68.00;;;;;;4981894;28;20041;-57
2021/12/31 10:46:22;;;;;;;3.25;1.13;;;18.70;68.10;;;;;;4982698;28;20041;-57
2021/12/31 10:48:54;;;;;;;0.90;0.77;;;18.60;68.20;;;;;;4982017;28;20053;-59
2021/12/31 10:51:42;;;;;;;1.70;0.98;;;18.70;68.50;;;;;;4978910;28;20531;-58
2021/12/31 10:55:01;;;;;;;1.73;1.02;;;18.70;68.40;;;;;;4975701;28;20565;-56
2021/12/31 10:57:35;;;;;;;1.60;0.80;;;18.70;68.50;;;;;;4981958;28;20030;-58
2021/12/31 11:00:00;;;;;;;1.48;0.90;;;18.70;68.10;;;;;;4979801;28;20527;-57
2021/12/31 11:02:26;;;;;;;1.40;0.90;;;18.70;67.80;;;;;;4982549;28;20050;-57
2021/12/31 11:04:51;;;;;;;3.95;1.00;;;18.70;68.10;;;;;;4982289;28;20824;-60
2021/12/31 11:07:17;;;;;;;2.05;1.10;;;18.70;68.00;;;;;;4981121;28;20038;-61
2021/12/31 11:09:43;;;;;;;3.33;0.95;;;18.70;68.00;;;;;;4980378;28;20058;-61
2021/12/31 11:12:10;;;;;;;4.38;0.98;;;18.60;67.70;;;;;;4980708;28;20272;-60
2021/12/31 11:14:36;;;;;;;4.32;1.10;;;18.70;67.80;;;;;;4980907;28;20156;-61
2021/12/31 11:17:02;;;;;;;2.10;0.80;;;18.70;67.90;;;;;;4981885;28;20026;-60
2021/12/31 11:19:27;;;;;;;4.72;0.90;;;18.70;67.80;;;;;;4973303;28;20128;-61
2021/12/31 11:21:53;;;;;;;3.08;0.85;;;18.60;68.20;;;;;;4973091;28;20093;-61
2021/12/31 11:24:33;;;;;;;4.68;0.80;;;18.70;68.20;;;;;;4979130;28;20035;-60
2021/12/31 11:26:59;;;;;;;5.35;1.67;;;18.60;68.50;;;;;;4981358;28;20034;-57
2021/12/31 11:29:34;;;;;;;8.93;1.08;;;18.70;68.70;;;;;;4981993;28;20069;-57
2021/12/31 11:31:59;;;;;;;6.57;0.95;;;18.70;68.80;;;;;;4981220;28;20672;-58
2021/12/31 11:34:28;;;;;;;5.60;1.00;;;18.70;68.50;;;;;;4971650;28;20030;-56
2021/12/31 11:36:54;;;;;;;3.20;0.70;;;18.60;68.20;;;;;;4981729;28;20724;-58
2021/12/31 11:39:28;;;;;;;3.50;0.88;;;18.70;68.40;;;;;;4984512;28;20733;-58
2021/12/31 11:41:55;;;;;;;1.90;0.73;;;18.70;68.10;;;;;;4984421;28;20117;-58
2021/12/31 11:44:23;;;;;;;4.60;1.20;;;18.70;67.90;;;;;;4989283;28;21509;-57
2021/12/31 11:46:49;;;;;;;3.15;1.00;;;18.70;67.90;;;;;;4985526;28;20121;-57
2021/12/31 11:49:22;;;;;;;4.93;0.80;;;18.70;67.70;;;;;;4987784;28;20120;-58
2021/12/31 11:52:05;;;;;;;3.45;1.23;;;18.70;67.50;;;;;;4985333;28;20088;-57
2021/12/31 11:54:31;;;;;;;2.90;0.82;;;18.60;67.20;;;;;;4989492;28;20038;-58
2021/12/31 11:56:59;;;;;;;4.15;0.80;;;18.70;67.30;;;;;;4984995;28;20513;-59
2021/12/31 11:59:29;;;;;;;2.53;0.80;;;18.60;67.30;;;;;;4988766;28;20034;-58
2021/12/31 12:02:13;;;;;;;3.00;0.80;;;18.60;66.90;;;;;;4985256;28;20036;-58
2021/12/31 12:04:40;;;;;;;5.05;0.95;;;18.60;67.30;;;;;;4985251;28;20445;-59
2021/12/31 12:07:35;;;;;;;2.15;0.90;;;18.70;67.00;;;;;;4983571;28;20050;-58
2021/12/31 12:10:00;;;;;;;2.95;1.15;;;18.60;66.70;;;;;;4984416;28;20770;-58
2021/12/31 12:12:36;;;;;;;3.17;1.50;;;18.70;66.40;;;;;;4984968;28;20030;-58
2021/12/31 12:15:03;;;;;;;2.80;1.23;;;18.70;66.80;;;;;;4986812;28;20026;-59
2021/12/31 12:17:29;;;;;;;5.07;1.40;;;18.70;66.00;;;;;;4984964;28;20034;-57
2021/12/31 12:19:57;;;;;;;7.97;1.90;;;18.70;66.10;;;;;;4984461;28;20045;-58
2021/12/31 12:22:33;;;;;;;5.35;2.38;;;18.70;66.20;;;;;;4974209;28;20042;-58
2021/12/31 12:24:59;;;;;;;;;;;18.70;66.00;;;;;;4985224;28;20026;-57
2021/12/31 12:27:25;;;;;;;6.63;2.53;;;18.60;66.00;;;;;;4985233;28;20461;-56
2021/12/31 12:29:51;;;;;;;3.88;2.22;;;18.60;65.80;;;;;;4986392;28;20034;-57
2021/12/31 12:32:18;;;;;;;4.60;2.60;;;18.70;65.70;;;;;;5034993;23;20064;-67
2021/12/31 12:34:44;;;;;;;4.90;3.13;;;18.60;65.40;;;;;;5022827;28;20537;-65
2021/12/31 12:37:10;;;;;;;23.83;13.45;;;18.60;65.80;;;;;;5025261;28;20036;-65
2021/12/31 12:39:36;;;;;;;23.75;15.77;;;18.60;66.30;;;;;;5025410;28;20026;-67
2021/12/31 12:42:02;;;;;;;23.80;16.70;;;18.60;66.90;;;;;;5038238;28;20520;-66
2021/12/31 12:44:28;;;;;;;24.35;16.45;;;18.60;67.00;;;;;;5027309;28;20024;-64
2021/12/31 12:46:57;;;;;;;25.58;15.82;;;18.60;67.00;;;;;;5023976;28;20017;-66